Time;durP1;ratioP1;P1;durP2;ratioP2;P2;SDS_P1;SDS_P2;PMS_P1;PMS_P2;Temp;Humidity;BMP_temperature;BMP_pressure;BME280_temperature;BME280_humidity;BME280_pressure;Samples;Min_cycle;Max_cycle;Signal;HPM_P1;HPM_P2
2024/04/10 00:00:52;;;;;;;5.60;1.73;;;;;;;12.38;47.42;94785.28;5497403;26;19998;-68
2024/04/10 00:03:17;;;;;;;3.13;1.70;;;;;;;12.51;46.60;94786.63;5501436;26;19994;-69
2024/04/10 00:06:07;;;;;;;2.13;1.63;;;;;;;12.45;46.78;94787.19;5488564;25;19998;-70
2024/04/10 00:08:33;;;;;;;3.28;1.60;;;;;;;12.49;45.85;94778.13;5504662;26;20588;-70
2024/04/10 00:11:00;;;;;;;2.80;1.58;;;;;;;12.53;46.07;94784.69;5468582;25;19998;-70
2024/04/10 00:13:26;;;;;;;2.60;1.52;;;;;;;12.47;46.70;94785.25;5495881;26;19998;-69
2024/04/10 00:15:58;;;;;;;5.50;1.60;;;;;;;12.30;46.59;94783.34;5484226;26;20062;-68
2024/04/10 00:18:23;;;;;;;2.75;1.80;;;;;;;12.17;46.55;94767.19;5502654;26;19998;-69
2024/04/10 00:20:49;;;;;;;2.83;1.70;;;;;;;12.30;46.62;94778.97;5500913;25;20403;-68
2024/04/10 00:23:14;;;;;;;2.65;1.55;;;;;;;12.26;46.78;94774.19;5500670;26;20495;-68
2024/04/10 00:25:40;;;;;;;2.17;1.58;;;;;;;12.34;46.89;94779.53;5473644;25;20008;-68
2024/04/10 00:28:05;;;;;;;2.90;1.80;;;;;;;12.25;46.92;94778.53;5505194;25;20063;-69
2024/04/10 00:30:30;;;;;;;3.38;1.60;;;;;;;12.26;46.93;94779.41;5499808;25;20466;-69
2024/04/10 00:32:57;;;;;;;3.75;1.90;;;;;;;12.20;46.96;94779.91;5441014;26;20026;-69
2024/04/10 00:35:22;;;;;;;3.97;1.80;;;;;;;12.18;47.16;94789.69;5501734;26;19998;-69
2024/04/10 00:37:48;;;;;;;4.60;1.80;;;;;;;12.17;47.20;94786.22;5503195;25;20058;-70
2024/04/10 00:40:13;;;;;;;3.75;1.77;;;;;;;12.16;47.40;94788.97;5465170;26;20486;-69
2024/04/10 00:42:39;;;;;;;5.07;1.80;;;;;;;12.08;47.80;94782.66;5502741;26;20347;-70
2024/04/10 00:45:04;;;;;;;4.05;1.70;;;;;;;12.02;47.99;94785.00;5472235;26;20140;-69
2024/04/10 00:47:30;;;;;;;3.25;1.67;;;;;;;11.99;47.79;94785.28;5484855;26;20012;-70
2024/04/10 00:49:55;;;;;;;3.13;1.83;;;;;;;12.03;47.82;94787.44;5481991;26;19998;-70
2024/04/10 00:52:21;;;;;;;4.60;2.00;;;;;;;12.04;47.76;94789.13;5547431;25;20032;-68
2024/04/10 00:54:46;;;;;;;2.53;1.83;;;;;;;12.00;48.24;94787.72;5487573;26;19990;-68
2024/04/10 00:57:12;;;;;;;3.80;1.90;;;;;;;11.78;48.27;94767.97;5420915;26;20006;-68
2024/04/10 00:59:37;;;;;;;5.63;2.03;;;;;;;11.76;48.96;94779.47;5538060;25;20444;-68
2024/04/10 01:02:04;;;;;;;3.28;1.98;;;;;;;11.72;49.13;94783.28;5488134;26;20039;-69
2024/04/10 01:04:29;;;;;;;3.33;2.00;;;;;;;11.56;49.55;94771.63;5456071;26;20009;-68
2024/04/10 01:06:55;;;;;;;3.65;1.88;;;;;;;11.51;49.98;94776.41;5452086;26;20002;-68
2024/04/10 01:09:20;;;;;;;2.80;1.85;;;;;;;11.44;50.37;94761.47;5445756;26;20002;-68
2024/04/10 01:11:46;;;;;;;3.15;1.98;;;;;;;11.36;50.28;94762.94;5488469;26;20002;-70
2024/04/10 01:14:11;;;;;;;4.50;2.30;;;;;;;11.27;50.63;94763.75;5449130;26;20325;-70
2024/04/10 01:16:36;;;;;;;3.08;1.88;;;;;;;11.25;50.88;94757.03;5444281;26;20271;-69
2024/04/10 01:19:03;;;;;;;4.25;2.13;;;;;;;11.08;50.98;94738.50;5464822;26;20440;-69
2024/04/10 01:21:28;;;;;;;4.65;2.10;;;;;;;11.17;50.89;94755.09;5486195;26;20066;-69
2024/04/10 01:23:54;;;;;;;2.47;1.70;;;;;;;11.12;51.24;94747.69;5487463;26;20026;-69
2024/04/10 01:26:19;;;;;;;3.35;2.22;;;;;;;11.07;51.36;94755.06;5454738;26;19998;-70
2024/04/10 01:28:46;;;;;;;3.20;2.40;;;;;;;11.13;51.15;94757.13;5457069;26;20069;-69
2024/04/10 01:31:12;;;;;;;5.05;2.33;;;;;;;10.95;51.33;94763.91;5484544;26;20017;-69
2024/04/10 01:33:37;;;;;;;5.53;2.63;;;;;;;11.03;51.24;94756.28;5487931;26;19998;-69
2024/04/10 01:36:03;;;;;;;3.42;2.30;;;;;;;11.03;51.12;94745.91;5445980;26;20512;-69
2024/04/10 01:38:29;;;;;;;5.72;2.55;;;;;;;11.07;51.07;94755.06;5487707;26;19994;-69
2024/04/10 01:40:54;;;;;;;3.92;2.53;;;;;;;10.85;51.60;94763.03;5484900;26;20451;-68
2024/04/10 01:43:20;;;;;;;6.57;2.45;;;;;;;10.88;51.61;94762.78;5485878;26;20452;-70
2024/04/10 01:45:46;;;;;;;4.50;2.42;;;;;;;10.83;51.39;94749.34;5486322;26;20377;-69
2024/04/10 01:48:11;;;;;;;4.03;2.05;;;;;;;10.80;51.81;94765.22;5485928;26;20042;-69
2024/04/10 01:50:37;;;;;;;3.75;2.28;;;;;;;10.91;51.50;94770.31;5452769;26;20002;-69
2024/04/10 01:53:02;;;;;;;3.47;2.30;;;;;;;10.74;52.26;94774.34;5483963;26;20500;-69
2024/04/10 01:55:27;;;;;;;3.38;2.40;;;;;;;10.68;52.15;94772.25;5486663;26;19997;-69
2024/04/10 01:57:53;;;;;;;3.92;2.50;;;;;;;10.71;52.07;94764.22;5490113;26;19986;-69
2024/04/10 02:00:24;;;;;;;3.67;2.40;;;;;;;10.61;52.07;94758.94;5419259;26;20067;-69
2024/04/10 02:02:50;;;;;;;4.78;2.50;;;;;;;10.45;52.62;94761.19;5487871;26;20001;-69
2024/04/10 02:05:15;;;;;;;3.88;2.50;;;;;;;10.39;53.31;94759.94;5485510;26;20002;-69
2024/04/10 02:07:41;;;;;;;5.93;2.47;;;;;;;10.44;53.03;94755.16;5487633;26;20000;-69
2024/04/10 02:10:06;;;;;;;3.55;2.40;;;;;;;10.51;53.15;94758.09;5470005;26;20019;-69
2024/04/10 02:12:32;;;;;;;4.88;2.67;;;;;;;10.31;53.30;94740.72;5426114;26;20431;-69
2024/04/10 02:14:57;;;;;;;6.45;2.67;;;;;;;10.13;53.95;94746.47;5420626;26;19990;-69
2024/04/10 02:17:23;;;;;;;4.50;2.95;;;;;;;10.26;53.86;94749.69;5449147;26;20038;-69
2024/04/10 02:19:50;;;;;;;4.20;2.70;;;;;;;10.26;53.86;94749.69;5464676;26;20005;-69
2024/04/10 02:22:15;;;;;;;4.88;2.75;;;;;;;10.16;53.99;94750.56;5418512;26;19995;-69
2024/04/10 02:24:41;;;;;;;4.35;2.80;;;;;;;10.10;53.76;94744.13;5480022;26;20419;-69
2024/04/10 02:27:06;;;;;;;3.67;2.55;;;;;;;9.95;54.24;94745.38;5484000;26;20074;-69
2024/04/10 02:29:32;;;;;;;6.30;2.80;;;;;;;9.92;54.55;94751.66;5481754;26;20401;-69
2024/04/10 02:31:57;;;;;;;4.20;2.50;;;;;;;9.82;54.82;94743.75;5548898;25;20091;-69
2024/04/10 02:34:23;;;;;;;3.50;2.45;;;;;;;9.88;54.81;94747.63;5454190;26;19998;-69
2024/04/10 02:36:49;;;;;;;3.85;2.75;;;;;;;9.82;54.20;94727.38;5455316;26;19994;-69
2024/04/10 02:39:14;;;;;;;3.72;2.50;;;;;;;9.78;55.09;94757.94;5450063;26;20034;-69
2024/04/10 02:41:39;;;;;;;5.30;2.50;;;;;;;9.53;55.29;94743.53;5456542;26;20013;-69
2024/04/10 02:44:05;;;;;;;4.28;2.58;;;;;;;9.73;55.20;94764.44;5485450;26;20077;-69
2024/04/10 02:46:30;;;;;;;3.78;2.60;;;;;;;9.70;55.17;94759.50;5484975;26;20006;-69
2024/04/10 02:48:56;;;;;;;4.85;2.47;;;;;;;9.70;55.30;94764.69;5485713;26;20022;-69
2024/04/10 02:51:21;;;;;;;4.70;2.70;;;;;;;9.72;55.09;94766.22;5548747;25;20387;-68
2024/04/10 02:53:47;;;;;;;3.78;2.33;;;;;;;9.74;54.67;94773.88;5480912;26;20002;-69
2024/04/10 02:56:12;;;;;;;5.43;2.45;;;;;;;9.66;55.19;94771.88;5420966;26;19994;-68
2024/04/10 02:58:38;;;;;;;5.70;2.60;;;;;;;9.58;55.33;94772.50;5485977;26;20078;-68
2024/04/10 03:01:04;;;;;;;4.82;2.50;;;;;;;9.56;55.46;94773.56;5489077;26;19994;-68
2024/04/10 03:03:29;;;;;;;4.50;2.65;;;;;;;9.56;55.26;94781.34;5455853;26;20070;-69
2024/04/10 03:06:03;;;;;;;6.05;2.83;;;;;;;9.59;55.55;94773.34;5456085;26;20002;-68
2024/04/10 03:08:28;;;;;;;4.10;2.72;;;;;;;9.44;55.59;94770.16;5457189;26;20030;-68
2024/04/10 03:10:54;;;;;;;3.63;2.50;;;;;;;9.53;55.91;94774.66;5486877;26;20001;-69
2024/04/10 03:13:20;;;;;;;5.13;2.80;;;;;;;9.49;55.74;94782.78;5484658;26;20468;-68
2024/04/10 03:15:45;;;;;;;3.70;2.60;;;;;;;9.51;55.68;94755.78;5481446;26;19994;-68
2024/04/10 03:18:11;;;;;;;4.38;2.58;;;;;;;9.51;56.32;94762.75;5483366;26;20030;-68
2024/04/10 03:20:36;;;;;;;5.15;2.33;;;;;;;9.52;56.08;94766.97;5485895;26;19994;-68
2024/04/10 03:23:02;;;;;;;3.67;2.50;;;;;;;9.43;56.26;94768.53;5454004;26;20012;-69
2024/04/10 03:25:29;;;;;;;4.30;2.50;;;;;;;9.39;56.68;94767.13;5486252;26;20068;-69
2024/04/10 03:27:54;;;;;;;4.93;2.80;;;;;;;9.28;56.61;94759.38;5455569;26;19994;-69
2024/04/10 03:30:20;;;;;;;4.05;2.42;;;;;;;9.27;56.67;94761.13;5486380;26;19998;-69
2024/04/10 03:32:45;;;;;;;5.10;2.58;;;;;;;9.29;56.73;94766.19;5486433;26;20034;-69
2024/04/10 03:35:11;;;;;;;3.45;2.42;;;;;;;9.27;56.51;94755.13;5456225;26;20335;-70
2024/04/10 03:37:36;;;;;;;3.40;2.50;;;;;;;9.27;56.68;94771.50;5486883;26;20450;-70
2024/04/10 03:40:01;;;;;;;4.50;2.63;;;;;;;9.27;56.71;94768.91;5456790;26;19998;-69
2024/04/10 03:42:27;;;;;;;4.10;2.28;;;;;;;9.36;56.49;94772.53;5485255;26;20329;-69
2024/04/10 03:44:53;;;;;;;4.82;2.70;;;;;;;9.14;56.86;94770.81;5486825;26;20045;-69
2024/04/10 03:47:18;;;;;;;3.60;2.50;;;;;;;9.13;56.85;94766.56;5486438;26;20062;-69
2024/04/10 03:49:43;;;;;;;3.63;2.60;;;;;;;9.13;56.47;94775.16;5548018;25;19998;-68
2024/04/10 03:52:09;;;;;;;3.55;1.95;;;;;;;9.10;56.34;94772.00;5486301;26;20069;-68
2024/04/10 03:54:34;;;;;;;4.50;2.47;;;;;;;9.26;56.18;94772.44;5487606;26;20017;-69
2024/04/10 03:57:00;;;;;;;4.38;2.35;;;;;;;9.28;55.81;94765.38;5455981;26;20002;-68
2024/04/10 03:59:26;;;;;;;5.00;2.35;;;;;;;9.27;55.86;94763.72;5486045;26;20078;-69
2024/04/10 04:01:51;;;;;;;3.70;2.22;;;;;;;9.31;55.29;94775.50;5482233;26;19994;-70
2024/04/10 04:04:17;;;;;;;3.67;2.40;;;;;;;9.39;54.98;94778.31;5452237;26;20030;-70
2024/04/10 04:06:46;;;;;;;5.47;2.42;;;;;;;9.52;54.56;94777.34;5426530;26;20010;-69
2024/04/10 04:09:12;;;;;;;3.15;2.17;;;;;;;9.49;54.28;94768.03;5483325;26;19995;-70
2024/04/10 04:11:37;;;;;;;4.32;2.25;;;;;;;9.55;54.23;94782.28;5424427;26;19995;-70
2024/04/10 04:14:05;;;;;;;3.67;2.17;;;;;;;9.39;54.62;94767.97;5483237;26;19998;-71
2024/04/10 04:16:31;;;;;;;4.28;2.10;;;;;;;9.47;54.31;94785.50;5422096;26;19994;-70
2024/04/10 04:18:56;;;;;;;3.03;2.35;;;;;;;9.34;54.86;94777.84;5455520;26;20008;-70
2024/04/10 04:21:23;;;;;;;3.85;2.20;;;;;;;9.53;55.03;94789.38;5482315;26;20073;-70
2024/04/10 04:23:48;;;;;;;4.22;2.20;;;;;;;9.35;54.77;94773.50;5454925;26;19994;-70
2024/04/10 04:26:14;;;;;;;2.90;2.17;;;;;;;9.49;54.72;94780.19;5448947;26;20546;-70
2024/04/10 04:28:40;;;;;;;3.22;2.30;;;;;;;9.30;55.02;94768.66;5458923;26;20500;-71
2024/04/10 04:31:05;;;;;;;5.07;2.10;;;;;;;9.36;55.38;94793.28;5487446;26;20002;-70
2024/04/10 04:33:31;;;;;;;3.47;2.15;;;;;;;9.34;55.24;94784.81;5485462;26;19994;-70
2024/04/10 04:35:56;;;;;;;2.95;1.98;;;;;;;9.45;55.43;94786.56;5488143;26;20062;-71
2024/04/10 04:38:21;;;;;;;5.07;2.10;;;;;;;9.30;55.73;94792.00;5421105;26;20003;-70
2024/04/10 04:40:47;;;;;;;3.83;2.15;;;;;;;9.31;55.83;94804.03;5451291;26;20047;-70
2024/04/10 04:43:12;;;;;;;4.78;2.33;;;;;;;9.13;56.36;94798.47;5485743;26;20448;-71
2024/04/10 04:45:38;;;;;;;3.35;2.28;;;;;;;9.42;55.95;94808.38;5458075;26;20062;-69
2024/04/10 04:48:05;;;;;;;3.50;2.25;;;;;;;10.17;53.77;94799.78;5458636;26;20002;-70
2024/04/10 04:50:31;;;;;;;3.97;2.17;;;;;;;11.05;50.91;94801.16;5456827;26;20527;-71
2024/04/10 04:52:56;;;;;;;3.90;2.30;;;;;;;11.55;49.49;94800.38;5454818;26;20005;-71
2024/04/10 04:55:21;;;;;;;3.13;2.35;;;;;;;12.29;47.91;94807.75;5486806;26;19998;-70
2024/04/10 04:57:47;;;;;;;6.05;2.20;;;;;;;12.72;47.07;94809.91;5428166;26;20107;-71
2024/04/10 05:00:14;;;;;;;5.65;2.60;;;;;;;13.60;45.02;94813.06;5455386;26;20069;-71
2024/04/10 05:02:42;;;;;;;3.83;2.35;;;;;;;14.35;43.59;94815.47;5516034;26;20009;-71
2024/04/10 05:05:18;;;;;;;17.40;3.28;;;;;;;15.54;41.00;94794.00;5428702;26;19998;-70
2024/04/10 05:07:44;;;;;;;5.15;2.83;;;;;;;16.06;40.28;94806.97;5450842;26;20329;-70
2024/04/10 05:10:10;;;;;;;7.68;3.05;;;;;;;16.38;39.83;94814.06;5460854;26;19994;-70
2024/04/10 05:12:38;;;;;;;7.45;3.28;;;;;;;17.02;39.46;94816.03;5483443;26;20009;-70
2024/04/10 05:15:04;;;;;;;5.05;2.67;;;;;;;17.69;37.83;94806.00;5458207;26;19998;-70
2024/04/10 05:17:29;;;;;;;6.25;2.72;;;;;;;18.40;35.95;94814.66;5486097;26;19998;-70
2024/04/10 05:19:55;;;;;;;12.57;3.20;;;;;;;18.81;35.55;94813.56;5428058;26;20376;-70
2024/04/10 05:22:20;;;;;;;7.82;3.10;;;;;;;17.94;36.59;94813.78;5537646;25;20006;-70
2024/04/10 05:24:46;;;;;;;5.60;2.65;;;;;;;17.89;36.54;94810.88;5486976;26;20077;-70
2024/04/10 05:27:24;;;;;;;9.55;2.75;;;;;;;17.67;36.84;94813.22;5485279;26;20489;-71
2024/04/10 05:29:57;;;;;;;6.10;2.70;;;;;;;17.02;38.90;94805.53;5454468;26;20012;-69
2024/04/10 05:32:23;;;;;;;7.38;2.60;;;;;;;16.90;38.20;94790.13;5501593;26;20009;-70
2024/04/10 05:34:54;;;;;;;4.93;2.47;;;;;;;16.77;38.82;94816.06;5483564;26;19995;-70
2024/04/10 05:37:19;;;;;;;4.65;2.90;;;;;;;16.39;40.50;94809.63;5458456;26;19998;-78
2024/04/10 05:39:45;;;;;;;3.90;2.55;;;;;;;15.97;40.76;94810.53;5456429;26;20021;-78
2024/04/10 05:42:10;;;;;;;6.93;2.58;;;;;;;15.73;41.25;94800.81;5454366;26;19994;-78
2024/04/10 05:44:36;;;;;;;6.18;3.75;;;;;;;15.37;42.03;94814.84;5487713;26;20100;-78
2024/04/10 05:47:01;;;;;;;11.63;4.30;;;;;;;15.29;42.32;94812.19;5486257;26;20463;-79
2024/04/10 05:49:29;;;;;;;9.35;4.15;;;;;;;15.42;42.20;94809.16;5458354;26;20042;-78
2024/04/10 05:51:55;;;;;;;6.18;3.17;;;;;;;15.64;42.70;94811.22;5479850;26;20025;-78
2024/04/10 05:54:20;;;;;;;13.02;4.15;;;;;;;15.46;42.65;94815.75;5478133;26;20022;-79
2024/04/10 05:56:46;;;;;;;11.25;3.50;;;;;;;15.17;43.28;94803.00;5487976;26;20010;-79
2024/04/10 05:59:11;;;;;;;16.23;3.85;;;;;;;14.65;44.25;94822.09;5448369;26;20442;-78
2024/04/10 06:01:36;;;;;;;10.88;3.30;;;;;;;15.41;44.19;94813.59;5512783;26;20002;-78
2024/04/10 06:04:02;;;;;;;10.80;3.40;;;;;;;15.70;42.78;94809.81;5484546;26;20002;-78
2024/04/10 06:06:27;;;;;;;6.97;3.67;;;;;;;15.68;42.90;94806.50;5487809;26;19994;-78
2024/04/10 06:08:53;;;;;;;9.32;3.53;;;;;;;15.61;42.59;94808.91;5461103;26;20013;-78
2024/04/10 06:11:18;;;;;;;6.90;3.78;;;;;;;15.57;42.68;94802.38;5549101;25;20336;-78
2024/04/10 06:13:47;;;;;;;8.55;3.35;;;;;;;15.53;42.57;94790.56;5484325;26;20070;-78
2024/04/10 06:16:12;;;;;;;11.05;3.53;;;;;;;15.67;43.09;94794.38;5488103;26;20009;-79
2024/04/10 06:18:38;;;;;;;9.13;3.20;;;;;;;15.70;42.56;94794.09;5487305;26;19998;-79
2024/04/10 06:21:04;;;;;;;5.07;3.20;;;;;;;15.34;42.51;94801.28;5486183;26;20432;-77
2024/04/10 06:23:32;;;;;;;8.70;3.58;;;;;;;15.20;42.40;94805.28;5485919;26;20009;-78
2024/04/10 06:25:58;;;;;;;6.20;3.13;;;;;;;15.57;42.43;94807.59;5452478;26;20006;-78
2024/04/10 06:28:26;;;;;;;9.60;3.40;;;;;;;15.87;42.14;94808.06;5455072;26;20096;-78
2024/04/10 06:30:59;;;;;;;6.07;3.35;;;;;;;15.83;42.17;94804.13;5450103;26;20003;-78
2024/04/10 06:33:24;;;;;;;4.93;3.00;;;;;;;16.11;39.36;94816.97;5451182;26;20013;-78
2024/04/10 06:35:50;;;;;;;5.95;2.70;;;;;;;16.03;40.70;94812.53;5455478;26;20397;-78
2024/04/10 06:38:15;;;;;;;8.48;2.80;;;;;;;15.94;41.65;94816.94;5486400;26;20337;-78
2024/04/10 06:40:42;;;;;;;6.43;3.30;;;;;;;16.05;41.11;94814.00;5487216;26;20497;-81
2024/04/10 06:43:07;;;;;;;9.00;3.47;;;;;;;15.44;42.66;94814.25;5477648;26;20022;-78
2024/04/10 06:45:33;;;;;;;4.95;3.17;;;;;;;15.42;42.82;94809.97;5450299;26;20515;-78
2024/04/10 06:47:58;;;;;;;6.75;3.28;;;;;;;15.37;42.84;94817.47;5486909;26;19994;-82
2024/04/10 06:50:24;;;;;;;8.45;3.40;;;;;;;15.59;42.47;94804.81;5487818;26;19998;-81
2024/04/10 06:52:49;;;;;;;10.13;3.50;;;;;;;15.58;42.36;94805.81;5457616;26;19990;-78
2024/04/10 06:55:15;;;;;;;4.70;3.05;;;;;;;15.54;41.91;94792.19;5427040;26;19994;-81
2024/04/10 06:57:40;;;;;;;5.82;3.05;;;;;;;16.21;41.73;94804.50;5489776;26;20070;-83
2024/04/10 07:00:12;;;;;;;5.78;3.10;;;;;;;16.42;40.95;94812.75;5488103;26;20004;-83
2024/04/10 07:02:40;;;;;;;6.03;3.00;;;;;;;16.76;40.79;94803.88;5489370;26;19990;-80
2024/04/10 07:05:06;;;;;;;5.65;3.00;;;;;;;17.14;40.26;94806.84;5487102;26;20006;-84
2024/04/10 07:07:32;;;;;;;8.05;3.00;;;;;;;17.07;39.46;94811.09;5487608;26;19997;-86
2024/04/10 07:09:57;;;;;;;5.35;3.00;;;;;;;16.63;40.44;94816.66;5487466;26;20458;-85
2024/04/10 07:12:23;;;;;;;5.30;3.10;;;;;;;16.53;40.78;94788.81;5456879;26;20022;-81
2024/04/10 07:14:48;;;;;;;4.63;2.40;;;;;;;17.34;38.97;94807.28;5485434;26;20000;-81
2024/04/10 07:17:13;;;;;;;5.82;2.97;;;;;;;17.48;38.90;94803.13;5518213;26;20022;-80
2024/04/10 07:19:39;;;;;;;5.65;2.90;;;;;;;17.43;39.18;94801.00;5456678;26;20034;-81
2024/04/10 07:22:05;;;;;;;6.28;2.97;;;;;;;17.15;39.32;94811.91;5457330;26;20416;-83
2024/04/10 07:24:31;;;;;;;12.27;3.33;;;;;;;17.30;39.09;94805.94;5487042;26;20340;-80
2024/04/10 07:26:57;;;;;;;7.60;3.20;;;;;;;17.84;38.14;94812.19;5456887;26;20018;-74
2024/04/10 07:29:22;;;;;;;9.77;2.67;;;;;;;17.63;38.65;94811.91;5489063;26;20022;-83
2024/04/10 07:31:47;;;;;;;4.40;2.78;;;;;;;17.78;37.92;94814.66;5487384;26;20012;-79
2024/04/10 07:34:14;;;;;;;5.28;2.88;;;;;;;17.77;36.89;94813.81;5456522;26;20301;-82
2024/04/10 07:36:40;;;;;;;8.15;2.60;;;;;;;17.74;37.31;94801.03;5457256;26;19990;-80
2024/04/10 07:39:06;;;;;;;8.48;2.70;;;;;;;17.50;37.92;94812.47;5488906;26;19994;-80
2024/04/10 07:41:32;;;;;;;6.18;2.90;;;;;;;17.83;37.46;94822.88;5489213;26;20035;-81
2024/04/10 07:43:58;;;;;;;9.23;2.85;;;;;;;17.95;37.65;94820.69;5486439;26;20006;-79
2024/04/10 07:46:24;;;;;;;8.55;3.00;;;;;;;17.62;38.81;94815.53;5488465;26;20006;-83
2024/04/10 07:48:52;;;;;;;6.82;2.90;;;;;;;17.36;39.11;94824.50;5486830;26;20443;-81
2024/04/10 07:51:17;;;;;;;11.13;2.90;;;;;;;17.80;38.17;94808.28;5456895;26;20405;-80
2024/04/10 07:53:43;;;;;;;4.20;2.90;;;;;;;18.39;36.11;94814.84;5486952;26;19990;-79
2024/04/10 07:56:09;;;;;;;4.55;2.63;;;;;;;18.13;38.05;94817.78;5428720;26;20062;-81
2024/04/10 07:58:35;;;;;;;4.70;2.90;;;;;;;18.16;37.83;94827.97;5460325;26;20080;-79
2024/04/10 08:01:00;;;;;;;4.55;2.90;;;;;;;18.15;38.52;94827.16;5429857;26;19997;-82
2024/04/10 08:03:27;;;;;;;7.20;2.83;;;;;;;18.03;38.61;94818.84;5489794;26;20063;-79
2024/04/10 08:05:52;;;;;;;8.60;2.88;;;;;;;18.55;37.74;94817.34;5458109;26;20009;-79
2024/04/10 08:08:18;;;;;;;8.30;3.50;;;;;;;18.11;38.34;94820.59;5488880;26;20006;-83
2024/04/10 08:10:44;;;;;;;5.28;2.83;;;;;;;18.03;38.66;94812.78;5457441;26;20001;-86
2024/04/10 08:13:10;;;;;;;4.40;2.58;;;;;;;17.99;38.43;94808.84;5490107;26;20030;-82
2024/04/10 08:15:36;;;;;;;7.93;3.10;;;;;;;18.18;37.67;94799.69;5491645;26;19994;-82
2024/04/10 08:18:01;;;;;;;9.45;2.92;;;;;;;18.40;37.79;94809.41;5490507;26;20340;-80
2024/04/10 08:20:27;;;;;;;8.80;3.00;;;;;;;18.19;37.55;94807.41;5472419;26;20077;-80
2024/04/10 08:22:52;;;;;;;5.10;2.70;;;;;;;18.24;38.48;94820.84;5453410;26;19991;-81
2024/04/10 08:25:17;;;;;;;10.27;3.08;;;;;;;18.18;38.37;94803.13;5423798;26;20001;-80
2024/04/10 08:27:43;;;;;;;5.53;3.22;;;;;;;18.53;37.77;94811.47;5423660;26;20031;-81
2024/04/10 08:30:08;;;;;;;6.82;2.78;;;;;;;18.77;37.71;94804.38;5423137;26;19994;-80
2024/04/10 08:32:35;;;;;;;10.15;3.50;;;;;;;18.96;37.50;94809.16;5453663;26;20060;-81
2024/04/10 08:35:00;;;;;;;12.80;3.30;;;;;;;18.84;37.67;94789.53;5423458;26;20031;-81
2024/04/10 08:37:25;;;;;;;13.80;2.60;;;;;;;19.03;36.42;94801.34;5423541;26;19991;-82
2024/04/10 08:39:51;;;;;;;7.40;2.70;;;;;;;19.18;36.59;94794.28;5423397;26;19986;-86
2024/04/10 08:42:18;;;;;;;6.20;2.72;;;;;;;19.11;36.40;94806.53;5453091;26;20109;-82
2024/04/10 08:44:44;;;;;;;8.75;2.90;;;;;;;19.26;35.83;94804.75;5423284;26;20063;-83
2024/04/10 08:47:09;;;;;;;6.30;2.85;;;;;;;19.50;35.56;94789.66;5479246;26;20037;-79
2024/04/10 08:49:36;;;;;;;4.85;2.78;;;;;;;19.65;35.71;94808.94;5460618;26;20177;-79
2024/04/10 08:52:02;;;;;;;3.70;2.35;;;;;;;20.02;34.45;94796.63;5458569;26;20005;-80
2024/04/10 08:54:27;;;;;;;6.50;2.70;;;;;;;19.67;34.43;94793.78;5480021;26;19998;-83
2024/04/10 08:56:52;;;;;;;5.00;2.30;;;;;;;19.84;33.56;94797.03;5458795;26;20001;-85
2024/04/10 08:59:18;;;;;;;2.95;2.08;;;;;;;19.78;32.90;94800.38;5491094;26;20336;-87
2024/04/10 09:01:43;;;;;;;7.70;2.55;;;;;;;20.38;32.86;94795.78;5459182;26;19994;-85
2024/04/10 09:04:10;;;;;;;4.30;2.22;;;;;;;20.54;31.41;94808.78;5489315;26;20034;-83
2024/04/10 09:06:36;;;;;;;4.35;2.25;;;;;;;20.82;31.35;94806.19;5428628;26;20063;-84
2024/04/10 09:09:11;;;;;;;4.47;2.03;;;;;;;20.53;31.04;94800.06;5458653;26;20014;-77
2024/04/10 09:11:37;;;;;;;4.30;1.80;;;;;;;20.64;27.68;94806.63;5460187;26;20005;-81
2024/04/10 09:14:03;;;;;;;6.95;2.05;;;;;;;20.90;28.88;94802.59;5458930;26;20023;-83
2024/04/10 09:16:29;;;;;;;2.90;1.58;;;;;;;20.56;29.40;94796.22;5459086;26;19993;-83
2024/04/10 09:18:55;;;;;;;3.90;2.20;;;;;;;20.65;28.73;94805.63;5467656;26;19994;-83
2024/04/10 09:21:20;;;;;;;4.43;1.83;;;;;;;21.03;28.01;94807.16;5459867;26;19998;-83
2024/04/10 09:23:45;;;;;;;3.88;1.70;;;;;;;21.23;26.43;94792.28;5454386;26;19999;-83
2024/04/10 09:26:17;;;;;;;4.03;1.80;;;;;;;21.51;26.42;94796.75;5477564;26;20384;-85
2024/04/10 09:28:42;;;;;;;5.78;2.08;;;;;;;21.29;26.09;94791.50;5490550;26;20495;-78
2024/04/10 09:31:17;;;;;;;2.40;1.60;;;;;;;21.07;25.72;94782.00;5458399;26;20022;-77
2024/04/10 09:33:42;;;;;;;10.68;2.35;;;;;;;21.50;22.56;94787.19;5456064;26;19994;-78
2024/04/10 09:36:08;;;;;;;2.75;1.38;;;;;;;21.62;21.83;94785.63;5457770;26;19994;-78
2024/04/10 09:38:34;;;;;;;2.53;1.35;;;;;;;21.90;24.33;94792.63;5486184;26;19998;-77
2024/04/10 09:41:03;;;;;;;2.30;1.60;;;;;;;22.07;21.76;94788.66;5449326;26;19995;-78
2024/04/10 09:43:29;;;;;;;1.83;1.00;;;;;;;21.78;19.44;94790.56;5489766;26;20051;-77
2024/04/10 09:45:56;;;;;;;3.42;1.63;;;;;;;21.84;21.33;94789.81;5485004;26;20018;-78
2024/04/10 09:48:22;;;;;;;5.75;1.55;;;;;;;22.11;20.30;94789.88;5458068;26;20002;-78
2024/04/10 09:50:47;;;;;;;3.72;1.63;;;;;;;22.09;22.62;94792.75;5451900;26;20009;-79
2024/04/10 09:53:13;;;;;;;4.72;1.50;;;;;;;21.71;23.40;94784.44;5488064;26;20009;-79
2024/04/10 09:55:38;;;;;;;3.78;2.08;;;;;;;21.56;24.41;94781.94;5441421;26;20040;-82
2024/04/10 09:58:08;;;;;;;3.80;1.45;;;;;;;21.66;24.82;94775.47;5452043;26;20006;-78
2024/04/10 10:00:34;;;;;;;3.65;1.70;;;;;;;21.76;24.22;94779.38;5452336;26;19995;-78
2024/04/10 10:03:25;;;;;;;4.13;1.67;;;;;;;21.79;23.83;94776.34;5466631;26;20005;-77
2024/04/10 10:06:03;;;;;;;1.70;1.05;;;;;;;21.66;22.08;94776.28;5485594;26;20013;-78
2024/04/10 10:08:28;;;;;;;3.13;1.40;;;;;;;21.73;21.50;94778.94;5426000;26;20005;-78
2024/04/10 10:10:53;;;;;;;2.65;1.08;;;;;;;21.97;19.88;94773.16;5484516;26;19999;-78
2024/04/10 10:13:31;;;;;;;8.45;1.33;;;;;;;22.08;19.82;94766.47;5483980;26;20033;-79
2024/04/10 10:16:02;;;;;;;4.28;1.10;;;;;;;22.29;18.22;94761.06;5452756;26;20093;-77
2024/04/10 10:18:27;;;;;;;7.55;1.15;;;;;;;22.52;16.43;94768.63;5447189;26;19995;-78
2024/04/10 10:21:09;;;;;;;2.00;0.98;;;;;;;22.46;17.85;94763.34;5484268;26;20004;-78
2024/04/10 10:23:35;;;;;;;3.22;1.45;;;;;;;22.66;17.55;94763.34;5485809;26;20016;-78
2024/04/10 10:26:01;;;;;;;3.55;1.88;;;;;;;22.45;17.50;94765.16;5448716;26;20477;-78
2024/04/10 10:28:26;;;;;;;1.77;1.00;;;;;;;22.39;17.28;94757.22;5452688;26;20079;-78
2024/04/10 10:30:52;;;;;;;1.77;1.10;;;;;;;22.34;17.87;94751.72;5485690;26;20454;-78
2024/04/10 10:33:19;;;;;;;1.90;1.10;;;;;;;22.50;17.67;94741.53;5442587;26;20026;-78
2024/04/10 10:35:44;;;;;;;3.97;1.67;;;;;;;22.57;19.26;94740.75;5444039;26;20002;-78
2024/04/10 10:38:09;;;;;;;2.55;1.30;;;;;;;22.64;18.33;94752.16;5482677;26;20331;-78
2024/04/10 10:40:35;;;;;;;2.50;1.33;;;;;;;22.75;17.77;94749.69;5454620;26;20002;-78
2024/04/10 10:43:01;;;;;;;2.35;1.00;;;;;;;22.67;17.49;94754.38;5455236;26;20078;-78
2024/04/10 10:45:26;;;;;;;2.45;1.10;;;;;;;22.67;16.78;94747.25;5485303;26;19997;-78
2024/04/10 10:47:52;;;;;;;2.05;1.10;;;;;;;23.00;17.40;94741.16;5485125;26;19998;-78
2024/04/10 10:50:17;;;;;;;3.42;1.10;;;;;;;22.92;17.68;94744.00;5426518;26;20477;-78
2024/04/10 10:52:43;;;;;;;4.40;1.00;;;;;;;23.07;17.74;94749.13;5461799;26;20471;-78
2024/04/10 10:55:14;;;;;;;3.92;1.30;;;;;;;23.18;18.31;94733.41;5453021;26;19998;-78
2024/04/10 10:57:39;;;;;;;2.83;1.27;;;;;;;23.34;17.58;94741.94;5486611;26;20001;-78
2024/04/10 11:00:17;;;;;;;3.13;1.15;;;;;;;23.23;17.73;94739.91;5477067;26;20001;-78
2024/04/10 11:02:43;;;;;;;5.05;1.20;;;;;;;23.37;17.31;94726.44;5456468;26;20009;-79
2024/04/10 11:05:14;;;;;;;3.15;1.20;;;;;;;23.69;18.00;94733.69;5482740;26;20009;-80
2024/04/10 11:07:43;;;;;;;3.40;1.20;;;;;;;23.83;17.55;94745.88;5456460;26;19998;-79
2024/04/10 11:10:12;;;;;;;4.60;1.50;;;;;;;23.57;17.35;94734.34;5457179;26;19990;-78
2024/04/10 11:12:38;;;;;;;3.08;1.70;;;;;;;23.47;17.70;94731.28;5454232;26;20005;-77
2024/04/10 11:15:11;;;;;;;2.97;1.70;;;;;;;23.44;18.31;94734.38;5485777;26;20026;-79
2024/04/10 11:17:37;;;;;;;2.25;1.40;;;;;;;23.24;19.42;94747.66;5457452;26;20021;-79
2024/04/10 11:20:06;;;;;;;2.80;1.60;;;;;;;23.38;19.64;94735.22;5488889;26;20289;-78
2024/04/10 11:22:32;;;;;;;2.87;1.70;;;;;;;23.43;20.43;94708.91;5487035;26;19994;-79
2024/04/10 11:24:57;;;;;;;2.92;1.73;;;;;;;23.62;19.97;94721.25;5453346;26;20004;-78
2024/04/10 11:27:23;;;;;;;2.97;1.42;;;;;;;23.83;19.41;94740.56;5423019;26;20431;-79
2024/04/10 11:29:50;;;;;;;3.17;2.03;;;;;;;23.88;19.53;94729.34;5421960;26;20002;-79